SBMN/MAO METAR and TAF weather

Enter ICAO airport designator
Station Type Date Time Source
SBMN METAR 2022/11/26 09:00 UTC NOAA

SBMN 260900Z VRB02KT 9999 BKN018 26/23 Q1011


Station Type Date Time Source
SBMN Decoded METAR 2022/11/26 09:00 UTC NOAA

Manaus Aeroporto , Brazil (SBMN) 03-09S 059-59W 84M
Nov 26, 2022 - 04:00 AM EST / 2022.11.26 0900 UTC
Wind: Variable at 2 MPH (2 KT):0
Visibility: greater than 7 mile(s):0
Sky conditions: mostly cloudy
Temperature: 78 F (26 C)
Dew Point: 73 F (23 C)
Relative Humidity: 83%
Pressure (altimeter): 29.85 in. Hg (1011 hPa)
ob: SBMN 260900Z VRB02KT 9999 BKN018 26/23 Q1011
cycle: 9

Station Type Date Time Source
SBMN TAF 2022/11/26 12:03 UTC NOAA

TAF TAF SBMN 260900Z 2612/2624 09005KT 9999 SCT020 FEW030TCU TX28/2615Z TN26/2623Z
TEMPO 2614/2618 12005KT 4000 TSRA BKN020 FEW035CB
BECMG 2618/2620 12005KT 9999 SCT030
RMK PFF

Example: see airport list